Cannon Air Force Base Clovis US
ICAO: KCVS
IATA: CVS
Category: Large
Scheduled Services: No

Elevation: 4295 ft
TransAlt. 18000 ft.

Airport Communications:
APP:125.5
ATIS:119.1
CLNC DEL:120.2
DEP:125.5
GND:121.9
PMSV METRO:34.46
COMD POST:38.13
PTD:139.6
TWR:120.4

KCVS Zoom In..

Runways:

(A) RW 04 length 10003 ft width 150 ft
ILS 108.50 / hdg 35

(B) RW 13 length 8196 ft width 150 ft
ILS 110.35 / hdg 125

(C) RW 22 length 10003 ft width 150 ft
ILS 109.70 / hdg 215

(D) RW 31 length 8196 ft width 150 ft
ILS 108.30 / hdg 305

Location; KCVS
Day. 24 / Time. 01.58 Zulu
* Altimeter: 30.30
* Temperature: 00° c. 32°f.
* Wind from: 040° Speed 10 kn.
Dewpoint: -16° c.
Visibility: 10 Statute Miles.
Clouds: Clear (automated report).

KCVS 240158Z AUTO 04010KT 10SM CLR 00/M16 A3030 RMK AO2 SLP283 T00001164 $


Wind From 040°
Speed 10 kn.

YouTube Music Video
 
jpsmedia.com for Web Design  worldairports.se 2018   terms of use